« Back
NWS Peachtree City, Ga » Text Product » CSG Terminal Aerodrome Forecast


Printer-friendly Version
Current Version              Previous Versions:   1  2  3  4  5  6  7  8  9  

Terminal Aerodrome Forecast

519
FTUS42 KFFC 241134
TAFCSG
TAF
KCSG 241134Z 2412/2512 22007KT P6SM BKN008 OVC015
      TEMPO 2412/2414 SCT008 BKN015
     FM241400 24010G17KT P6SM BKN021 OVC030
     FM241700 26011G20KT P6SM SCT035
     FM242000 29009KT P6SM SCT070=

USA.gov is the U.S. government's official web portal to all federal, state and local government web resources and services.